createdAt,value
2023-03-25T00:03:18.028Z,100.00
2023-03-25T00:08:22.439Z,100.00
2023-03-25T00:13:32.106Z,100.00
2023-03-25T00:18:38.040Z,100.00
2023-03-25T00:23:43.247Z,100.00
2023-03-25T00:28:48.875Z,100.00
2023-03-25T00:33:53.373Z,100.00
2023-03-25T00:38:57.771Z,100.00
2023-03-25T00:44:04.875Z,100.00
2023-03-25T00:49:09.095Z,100.00
2023-03-25T00:54:13.646Z,100.00
2023-03-25T00:59:19.160Z,100.00
2023-03-25T01:04:23.656Z,100.00
2023-03-25T01:09:27.911Z,100.00
2023-03-25T01:14:33.481Z,100.00
2023-03-25T01:19:38.405Z,100.00
2023-03-25T01:24:43.036Z,100.00
2023-03-25T01:29:48.605Z,100.00
2023-03-25T01:34:52.948Z,97.54
2023-03-25T01:39:57.093Z,94.74
2023-03-25T01:45:21.338Z,90.91
2023-03-25T01:50:29.401Z,87.96
2023-03-25T01:55:35.770Z,87.26
2023-03-25T02:00:44.723Z,87.43
2023-03-25T02:05:57.157Z,87.96
2023-03-25T02:11:01.843Z,89.76
2023-03-25T02:16:27.369Z,89.50
2023-03-25T02:22:15.380Z,88.84
2023-03-25T02:27:34.180Z,89.92
2023-03-25T02:33:06.067Z,90.20
2023-03-25T02:38:26.715Z,89.77
2023-03-25T02:43:34.865Z,88.55
2023-03-25T02:48:46.225Z,89.28
2023-03-25T02:53:54.707Z,88.36
2023-03-25T02:58:59.270Z,88.42
2023-03-25T03:04:03.667Z,91.19
2023-03-25T03:09:25.780Z,89.45
2023-03-25T03:14:45.078Z,88.85
2023-03-25T03:19:54.247Z,90.79
2023-03-25T03:25:06.410Z,90.59
2023-03-25T03:30:15.180Z,90.33
2023-03-25T03:35:25.795Z,90.79
2023-03-25T03:40:34.826Z,91.38
2023-03-25T03:45:41.914Z,91.57
2023-03-25T03:50:50.846Z,90.55
2023-03-25T03:56:02.237Z,90.96
2023-03-25T04:01:11.788Z,91.29
2023-03-25T04:06:24.694Z,91.14
2023-03-25T04:11:37.257Z,90.11
2023-03-25T04:16:45.903Z,90.86
2023-03-25T04:21:50.526Z,90.82
2023-03-25T04:26:57.989Z,91.27
2023-03-25T04:32:03.002Z,91.02
2023-03-25T04:37:07.609Z,91.11
2023-03-25T04:42:14.267Z,91.24
2023-03-25T04:47:24.678Z,91.83
2023-03-25T04:52:29.109Z,92.38
2023-03-25T04:57:35.031Z,93.38
2023-03-25T05:02:39.649Z,94.34
2023-03-25T05:07:45.656Z,94.63
2023-03-25T05:12:52.465Z,95.65
2023-03-25T05:17:56.834Z,95.42
2023-03-25T05:23:01.307Z,96.68
2023-03-25T05:28:10.111Z,95.19
2023-03-25T05:33:16.672Z,94.48
2023-03-25T05:38:21.201Z,95.31
2023-03-25T05:43:27.009Z,93.87
2023-03-25T05:48:32.583Z,92.95
2023-03-25T05:53:37.676Z,93.36
2023-03-25T05:58:43.679Z,93.40
2023-03-25T06:03:48.440Z,93.42
2023-03-25T06:08:53.149Z,92.57
2023-03-25T06:13:59.391Z,89.00
2023-03-25T06:19:05.338Z,86.95
2023-03-25T06:24:12.506Z,84.95
2023-03-25T06:29:18.768Z,87.32
2023-03-25T06:34:23.716Z,86.75
2023-03-25T06:39:31.392Z,83.30
2023-03-25T06:44:39.110Z,79.26
2023-03-25T06:49:43.283Z,74.98
2023-03-25T06:54:47.491Z,74.57
2023-03-25T06:59:53.120Z,68.17
2023-03-25T07:04:57.557Z,66.56
2023-03-25T07:10:02.629Z,69.57
2023-03-25T07:15:09.965Z,69.64
2023-03-25T07:20:18.938Z,70.43
2023-03-25T07:25:23.484Z,66.52
2023-03-25T07:30:29.093Z,60.24
2023-03-25T07:35:33.342Z,52.07
2023-03-25T07:40:37.723Z,53.28
2023-03-25T07:45:43.689Z,59.62
2023-03-25T07:50:49.756Z,58.25
2023-03-25T07:55:54.344Z,58.09
2023-03-25T08:01:00.138Z,59.82
2023-03-25T08:06:04.634Z,60.71
2023-03-25T08:11:09.204Z,57.02
2023-03-25T08:16:16.319Z,51.19
2023-03-25T08:21:25.879Z,46.75
2023-03-25T08:26:29.969Z,50.20
2023-03-25T08:31:38.913Z,52.30
2023-03-25T08:36:43.388Z,51.24
2023-03-25T08:41:47.952Z,55.22
2023-03-25T08:46:53.557Z,55.84
2023-03-25T08:51:59.324Z,55.79
2023-03-25T08:57:04.448Z,54.45
2023-03-25T09:02:11.958Z,54.50
2023-03-25T09:07:16.237Z,55.28
2023-03-25T09:12:20.471Z,52.92
2023-03-25T09:17:26.465Z,51.82
2023-03-25T09:22:30.849Z,53.85
2023-03-25T09:27:35.900Z,54.85
2023-03-25T09:32:41.862Z,54.08
2023-03-25T09:37:51.838Z,51.92
2023-03-25T09:43:08.704Z,53.78
2023-03-25T09:48:24.587Z,55.49
2023-03-25T09:53:36.885Z,56.97
2023-03-25T09:58:45.761Z,61.22
2023-03-25T10:04:00.858Z,75.34
2023-03-25T10:09:27.425Z,81.46
2023-03-25T10:14:39.648Z,81.32
2023-03-25T10:19:55.940Z,78.57
2023-03-25T10:25:04.257Z,85.38
2023-03-25T10:30:15.685Z,91.19
2023-03-25T10:35:25.457Z,94.25
2023-03-25T10:40:34.967Z,88.90
2023-03-25T10:45:42.701Z,81.63
2023-03-25T10:50:49.885Z,71.86
2023-03-25T10:55:59.156Z,63.90
2023-03-25T11:01:12.365Z,56.54
2023-03-25T11:06:26.813Z,54.44
2023-03-25T11:11:35.069Z,53.33
2023-03-25T11:16:46.241Z,50.26
2023-03-25T11:21:58.394Z,51.99
2023-03-25T11:27:04.291Z,57.71
2023-03-25T11:32:10.152Z,56.66
2023-03-25T11:37:21.204Z,57.93
2023-03-25T11:42:33.294Z,54.97
2023-03-25T11:47:40.672Z,53.88
2023-03-25T11:52:48.242Z,50.38
2023-03-25T11:57:53.970Z,52.97
2023-03-25T12:03:02.365Z,54.36
2023-03-25T12:08:15.658Z,57.10
2023-03-25T12:13:33.599Z,62.00
2023-03-25T12:18:50.331Z,64.70
2023-03-25T12:24:08.420Z,70.58
2023-03-25T12:29:27.148Z,82.89
2023-03-25T12:34:44.735Z,89.32
2023-03-25T12:40:09.360Z,85.12
2023-03-25T12:45:29.907Z,82.08
2023-03-25T12:50:50.970Z,74.77
2023-03-25T12:56:10.752Z,71.17
2023-03-25T13:01:26.412Z,65.27
2023-03-25T13:06:37.323Z,60.60
2023-03-25T13:11:48.042Z,56.58
2023-03-25T13:16:56.737Z,57.06
2023-03-25T13:22:05.767Z,56.75
2023-03-25T13:27:15.526Z,56.19
2023-03-25T13:32:23.007Z,56.51
2023-03-25T13:37:30.971Z,52.54
2023-03-25T13:42:44.760Z,53.03
2023-03-25T13:47:55.371Z,54.70
2023-03-25T13:53:06.729Z,53.38
2023-03-25T13:58:51.504Z,52.48
2023-03-25T14:04:20.779Z,49.23
2023-03-25T14:09:52.496Z,48.78
2023-03-25T14:15:01.801Z,47.91
2023-03-25T14:20:12.668Z,49.51
2023-03-25T14:25:23.432Z,49.33
2023-03-25T14:30:30.296Z,50.34
2023-03-25T14:35:51.623Z,52.61
2023-03-25T14:41:03.441Z,54.12
2023-03-25T14:46:22.088Z,54.56
2023-03-25T14:51:50.650Z,52.09
2023-03-25T14:57:01.957Z,52.36
2023-03-25T15:02:16.692Z,52.82
2023-03-25T15:07:41.121Z,53.33
2023-03-25T15:12:46.282Z,57.17
2023-03-25T15:17:51.887Z,61.06
2023-03-25T15:23:33.350Z,66.09
2023-03-25T15:28:50.160Z,66.41
2023-03-25T15:34:12.691Z,64.67
2023-03-25T15:39:37.015Z,65.93
2023-03-25T15:45:11.280Z,64.38
2023-03-25T15:50:42.028Z,64.63
2023-03-25T15:55:52.800Z,64.61
2023-03-25T16:01:04.992Z,66.26
2023-03-25T16:06:17.201Z,65.28
2023-03-25T16:11:31.565Z,65.92
2023-03-25T16:16:40.937Z,65.79
2023-03-25T16:21:49.385Z,65.44
2023-03-25T16:26:54.155Z,66.43
2023-03-25T16:32:00.206Z,66.15
2023-03-25T16:37:07.360Z,66.67
2023-03-25T16:42:19.705Z,67.72
2023-03-25T16:47:25.020Z,67.26
2023-03-25T16:52:35.261Z,66.82
2023-03-25T16:57:41.377Z,68.18
2023-03-25T17:02:48.684Z,69.43
2023-03-25T17:08:03.557Z,71.82
2023-03-25T17:13:11.050Z,73.69
2023-03-25T17:18:18.442Z,74.18
2023-03-25T17:23:34.623Z,74.67
2023-03-25T17:28:42.602Z,75.72
2023-03-25T17:33:51.192Z,75.88
2023-03-25T17:38:58.776Z,77.87
2023-03-25T17:44:03.367Z,77.84
2023-03-25T17:49:16.798Z,78.19
2023-03-25T17:54:22.807Z,78.47
2023-03-25T17:59:27.507Z,78.29
2023-03-25T18:04:31.658Z,78.44
2023-03-25T18:09:41.423Z,76.90
2023-03-25T18:14:45.988Z,75.91
2023-03-25T18:19:50.859Z,76.19
2023-03-25T18:24:58.835Z,76.94
2023-03-25T18:30:07.347Z,77.06
2023-03-25T18:35:11.900Z,78.01
2023-03-25T18:40:24.532Z,79.41
2023-03-25T18:45:29.032Z,79.27
2023-03-25T18:50:35.092Z,78.40
2023-03-25T18:55:44.145Z,78.81
2023-03-25T19:00:49.568Z,77.96
2023-03-25T19:05:54.341Z,78.63
2023-03-25T19:11:11.755Z,78.11
2023-03-25T19:16:24.038Z,77.88
2023-03-25T19:21:28.361Z,77.87
2023-03-25T19:26:33.974Z,79.22
2023-03-25T19:31:38.774Z,79.62
2023-03-25T19:36:42.973Z,79.96
2023-03-25T19:41:49.686Z,79.99
2023-03-25T19:46:53.968Z,80.72
2023-03-25T19:51:58.398Z,82.41
2023-03-25T19:57:04.763Z,81.15
2023-03-25T20:02:09.061Z,80.75
2023-03-25T20:07:13.664Z,81.53
2023-03-25T20:12:19.638Z,81.44
2023-03-25T20:17:24.535Z,81.33
2023-03-25T20:22:29.648Z,82.70
2023-03-25T20:27:35.550Z,82.97
2023-03-25T20:32:42.122Z,84.24
2023-03-25T20:37:49.130Z,82.89
2023-03-25T20:42:55.043Z,80.78
2023-03-25T20:47:59.883Z,77.52
2023-03-25T20:53:04.549Z,75.22
2023-03-25T20:58:11.583Z,74.80
2023-03-25T21:03:16.492Z,73.37
2023-03-25T21:08:20.775Z,73.67
2023-03-25T21:13:28.852Z,72.78
2023-03-25T21:18:33.042Z,71.77
2023-03-25T21:23:43.025Z,71.52
2023-03-25T21:28:49.970Z,70.59
2023-03-25T21:33:56.712Z,71.16
2023-03-25T21:39:02.790Z,71.17
2023-03-25T21:44:09.083Z,70.51
2023-03-25T21:49:14.291Z,68.56
2023-03-25T21:54:19.269Z,68.46
2023-03-25T21:59:25.330Z,68.51
2023-03-25T22:04:29.549Z,67.26
2023-03-25T22:09:33.935Z,68.20
2023-03-25T22:14:39.705Z,67.38
2023-03-25T22:19:43.842Z,66.50
2023-03-25T22:24:48.155Z,67.10
2023-03-25T22:29:53.785Z,65.97
2023-03-25T22:34:58.564Z,66.67
2023-03-25T22:40:03.268Z,66.54
2023-03-25T22:45:10.203Z,67.91
2023-03-25T22:50:14.625Z,68.73
2023-03-25T22:55:19.075Z,71.31
2023-03-25T23:00:27.118Z,74.59
2023-03-25T23:05:31.502Z,76.61
2023-03-25T23:10:35.682Z,79.25
2023-03-25T23:15:41.405Z,81.85
2023-03-25T23:20:49.858Z,82.13
2023-03-25T23:26:05.755Z,80.86
2023-03-25T23:31:13.373Z,80.99
2023-03-25T23:36:20.051Z,82.08
2023-03-25T23:41:26.052Z,82.24
2023-03-25T23:46:32.304Z,84.49
2023-03-25T23:51:38.700Z,84.19
2023-03-25T23:56:43.525Z,84.37
